This is the latest recevied weather packets stored in our database for station/object IU1INZ-13. If no packets are shown the sender has not sent any weather packets the latest 10 day(s).
| Time | Temp. | Humidity | Pressure | Rain* | Wind** | Luminosity | Snow |
|---|---|---|---|---|---|---|---|
| 1777936534 | 12.78° C | 79% | 1016.6 hPa | 0 mm | - | - | - |
| 1777935636 | 12.78° C | 80% | 1016.8 hPa | 0 mm | - | - | - |
| 1777934737 | 12.78° C | 79% | 1017 hPa | 0 mm | - | - | - |
| 1777933852 | 12.22° C | 78% | 1016.8 hPa | 0 mm | - | - | - |
| 1777932936 | 12.22° C | 78% | 1016.8 hPa | 0 mm | - | - | - |
| 1777932041 | 12.78° C | 72% | 1017.1 hPa | 0 mm | - | - | - |
| 1777931132 | 13.33° C | 69% | 1017.3 hPa | 0 mm | - | - | - |
| 1777930245 | 12.78° C | 74% | 1017.7 hPa | 0 mm | - | - | - |
| 1777929336 | 13.33° C | 66% | 1017.5 hPa | 0 mm | - | - | - |
| 1777928438 | 13.33° C | 68% | 1017.5 hPa | 0 mm | - | - | - |
| 1777927542 | 12.78° C | 70% | 1017.6 hPa | 0 mm | - | - | - |
| 1777926636 | 12.78° C | 70% | 1017.7 hPa | 0 mm | - | - | - |
| 1777925732 | 12.78° C | 72% | 1017.9 hPa | 0 mm | - | - | - |
| 1777924829 | 12.22° C | 73% | 1017.8 hPa | 0 mm | - | - | - |
| 1777923933 | 12.22° C | 74% | 1017.8 hPa | 0 mm | - | - | - |
| 1777923033 | 12.22° C | 74% | 1017.6 hPa | 0 mm | - | - | - |
| 1777922133 | 12.22° C | 77% | 1017.4 hPa | 0 mm | - | - | - |
| 1777921230 | 12.22° C | 77% | 1017.4 hPa | 0.25 mm | - | - | - |
| 1777920335 | 12.22° C | 77% | 1017.2 hPa | 0.76 mm | - | - | - |
| 1777919434 | 12.22° C | 78% | 1017.4 hPa | 0.76 mm | - | - | - |
| 1777918542 | 12.22° C | 81% | 1017.5 hPa | 1.52 mm | - | - | - |
| 1777917632 | 12.78° C | 80% | 1017.7 hPa | 2.29 mm | - | - | - |
| 1777916733 | 13.33° C | 79% | 1017.3 hPa | 1.78 mm | - | - | - |
| 1777915833 | 13.33° C | 81% | 1017.2 hPa | 1.78 mm | - | - | - |
| 1777914933 | 14.44° C | 73% | 1017.3 hPa | 0.76 mm | - | - | - |
* Rain latest hour (hover to see other rain measurements)
** Current wind speed in m/s (hover to see current wind gust speed)